Time;durP1;ratioP1;P1;durP2;ratioP2;P2;SDS_P1;SDS_P2;PMS_P1;PMS_P2;Temp;Humidity;BMP_temperature;BMP_pressure;BME280_temperature;BME280_humidity;BME280_pressure;Samples;Min_cycle;Max_cycle;Signal;HPM_P1;HPM_P2
2024/01/11 00:01:50;;;;;;;0.40;0.40;;;22.50;41.50;;;;;;5113480;28;20050;-35
2024/01/11 00:04:16;;;;;;;0.47;0.35;;;22.40;41.50;;;;;;5123645;27;20028;-31
2024/01/11 00:06:43;;;;;;;0.40;0.30;;;22.50;41.50;;;;;;5115556;27;20052;-35
2024/01/11 00:09:09;;;;;;;0.60;0.40;;;22.50;41.30;;;;;;5117401;28;20091;-30
2024/01/11 00:11:35;;;;;;;0.70;0.50;;;22.50;41.50;;;;;;5112260;27;20119;-32
2024/01/11 00:14:01;;;;;;;0.43;0.38;;;22.50;41.50;;;;;;5113730;27;20104;-33
2024/01/11 00:16:27;;;;;;;0.60;0.40;;;22.50;41.50;;;;;;5108588;28;20024;-34
2024/01/11 00:18:53;;;;;;;0.60;0.43;;;22.40;41.50;;;;;;5115015;28;20506;-32
2024/01/11 00:21:20;;;;;;;0.68;0.40;;;22.40;41.50;;;;;;5118250;28;20026;-31
2024/01/11 00:23:46;;;;;;;0.50;0.43;;;22.40;41.30;;;;;;5108303;28;20038;-35
2024/01/11 00:26:15;;;;;;;0.38;0.38;;;22.50;41.40;;;;;;5106221;28;20092;-32
2024/01/11 00:28:41;;;;;;;0.35;0.35;;;22.50;41.50;;;;;;5116025;28;20028;-33
2024/01/11 00:31:07;;;;;;;0.43;0.43;;;22.40;41.50;;;;;;5116142;28;20027;-34
2024/01/11 00:33:33;;;;;;;0.32;0.32;;;22.40;41.50;;;;;;5121339;28;20027;-35
2024/01/11 00:36:00;;;;;;;0.20;0.20;;;22.40;41.40;;;;;;5115415;28;20050;-28
2024/01/11 00:38:26;;;;;;;0.60;0.50;;;22.40;41.40;;;;;;5116069;28;20031;-34
2024/01/11 00:40:52;;;;;;;1.10;0.50;;;22.40;41.30;;;;;;5115665;28;20028;-33
2024/01/11 00:43:18;;;;;;;0.35;0.35;;;22.40;41.40;;;;;;5121558;28;20813;-36
2024/01/11 00:45:45;;;;;;;0.88;0.50;;;22.40;41.50;;;;;;5117437;28;20031;-32
2024/01/11 00:48:12;;;;;;;1.35;0.98;;;22.40;41.50;;;;;;5114522;28;20039;-35
2024/01/11 00:50:38;;;;;;;0.80;0.60;;;22.30;41.50;;;;;;5110657;28;20051;-35
2024/01/11 00:53:04;;;;;;;0.98;0.50;;;22.40;41.50;;;;;;5111375;28;20019;-34
2024/01/11 00:55:31;;;;;;;0.35;0.30;;;22.40;41.40;;;;;;5118055;28;20090;-29
2024/01/11 00:57:57;;;;;;;2.95;0.50;;;22.40;41.40;;;;;;5115512;28;20039;-31
2024/01/11 01:00:23;;;;;;;1.27;0.60;;;22.40;41.50;;;;;;5121791;28;20028;-32
2024/01/11 01:03:09;;;;;;;1.98;0.50;;;22.40;41.50;;;;;;5059822;28;20044;-33
2024/01/11 01:05:35;;;;;;;1.08;0.60;;;22.30;41.60;;;;;;5055920;28;20041;-30
2024/01/11 01:08:01;;;;;;;0.85;0.50;;;22.30;41.60;;;;;;5059363;28;20066;-34
2024/01/11 01:10:28;;;;;;;0.73;0.60;;;22.40;41.50;;;;;;5058852;28;20036;-34
2024/01/11 01:12:54;;;;;;;1.02;0.70;;;22.40;41.60;;;;;;5055365;28;20029;-32
2024/01/11 01:15:20;;;;;;;0.70;0.60;;;22.40;41.60;;;;;;5063185;28;20096;-30
2024/01/11 01:17:46;;;;;;;0.65;0.50;;;22.30;41.60;;;;;;5065311;28;20065;-36
2024/01/11 01:20:13;;;;;;;0.98;0.55;;;22.30;41.60;;;;;;5059222;28;20032;-34
2024/01/11 01:22:39;;;;;;;0.90;0.68;;;22.30;41.70;;;;;;5054903;28;20468;-33
2024/01/11 01:25:06;;;;;;;4.72;0.63;;;22.30;41.50;;;;;;5059126;28;20051;-32
2024/01/11 01:27:32;;;;;;;2.63;0.70;;;22.40;41.50;;;;;;5057996;28;20059;-35
2024/01/11 01:29:58;;;;;;;1.55;0.80;;;22.30;41.60;;;;;;5057588;28;20335;-32
2024/01/11 01:32:24;;;;;;;5.80;0.90;;;22.30;41.90;;;;;;5052687;28;20089;-34
2024/01/11 01:34:50;;;;;;;0.80;0.60;;;22.30;42.10;;;;;;5059444;28;20048;-33
2024/01/11 01:37:16;;;;;;;0.65;0.60;;;22.30;41.90;;;;;;5059508;28;20036;-30
2024/01/11 01:39:43;;;;;;;1.02;0.70;;;22.30;41.70;;;;;;5074506;28;20036;-35
2024/01/11 01:42:09;;;;;;;248.05;89.63;;;22.30;41.60;;;;;;5116892;28;20074;-34
2024/01/11 01:44:35;;;;;;;180.87;66.80;;;22.30;41.80;;;;;;5114639;28;20028;-34
2024/01/11 01:47:02;;;;;;;144.38;50.70;;;22.30;41.80;;;;;;5146698;27;20035;-35
2024/01/11 01:49:28;;;;;;;;;;;22.30;42.30;;;;;;5117567;28;20511;-35
2024/01/11 01:51:55;;;;;;;80.55;29.85;;;22.20;43.10;;;;;;5117470;28;19912;-33
2024/01/11 01:54:21;;;;;;;37.95;14.32;;;22.20;43.70;;;;;;5114014;28;20020;-35
2024/01/11 01:56:47;;;;;;;34.88;14.05;;;22.30;42.70;;;;;;5110611;28;20046;-32
2024/01/11 01:59:14;;;;;;;32.40;12.65;;;22.30;42.40;;;;;;5118195;28;20023;-31
2024/01/11 02:01:40;;;;;;;28.15;11.65;;;22.20;42.40;;;;;;5117197;28;21029;-33
2024/01/11 02:04:06;;;;;;;22.67;9.63;;;22.20;42.40;;;;;;5107674;28;20032;-35
2024/01/11 02:06:32;;;;;;;23.45;8.15;;;22.20;42.40;;;;;;5117710;28;20064;-35
2024/01/11 02:08:59;;;;;;;14.30;6.28;;;22.20;42.30;;;;;;5109192;28;20058;-32
2024/01/11 02:11:25;;;;;;;14.48;5.85;;;22.20;42.20;;;;;;5116541;28;20062;-34
2024/01/11 02:13:51;;;;;;;12.32;5.22;;;22.20;42.20;;;;;;5120106;28;20024;-33
2024/01/11 02:16:17;;;;;;;9.80;5.18;;;22.20;42.10;;;;;;5114611;28;20028;-34
2024/01/11 02:18:43;;;;;;;11.32;4.50;;;22.20;42.20;;;;;;5117734;28;20059;-34
2024/01/11 02:21:12;;;;;;;8.00;4.07;;;22.10;42.20;;;;;;5116205;28;20024;-32
2024/01/11 02:23:47;;;;;;;5.55;3.63;;;22.10;42.30;;;;;;5114805;27;20036;-29
2024/01/11 02:26:14;;;;;;;6.43;2.83;;;22.10;42.20;;;;;;5117402;28;20019;-34
2024/01/11 02:28:46;;;;;;;6.22;3.33;;;22.20;42.30;;;;;;5123397;28;20046;-34
2024/01/11 02:31:16;;;;;;;7.18;3.40;;;22.10;42.20;;;;;;5125175;28;20024;-32
2024/01/11 02:33:42;;;;;;;4.68;2.70;;;22.10;42.40;;;;;;5123790;28;20039;-33
2024/01/11 02:36:08;;;;;;;6.78;2.88;;;22.00;42.40;;;;;;5118986;28;20069;-31
2024/01/11 02:38:35;;;;;;;5.32;2.40;;;22.00;42.70;;;;;;5114970;28;20207;-35
2024/01/11 02:41:01;;;;;;;8.77;2.37;;;22.10;42.50;;;;;;5116922;28;20229;-35
2024/01/11 02:43:27;;;;;;;4.68;2.72;;;22.10;42.40;;;;;;5123964;28;20024;-34
2024/01/11 02:45:58;;;;;;;3.88;2.38;;;22.10;42.40;;;;;;5114191;27;20039;-35
2024/01/11 02:48:29;;;;;;;4.82;2.15;;;22.00;42.40;;;;;;5117725;27;20028;-31
2024/01/11 02:50:55;;;;;;;4.38;2.17;;;22.00;42.60;;;;;;5106867;28;20427;-35
2024/01/11 02:53:22;;;;;;;2.83;2.03;;;22.00;42.80;;;;;;5117534;28;20093;-33
2024/01/11 02:55:48;;;;;;;3.95;1.77;;;22.00;42.60;;;;;;5113422;27;20036;-31
2024/01/11 02:58:14;;;;;;;2.78;1.77;;;22.00;42.40;;;;;;5110818;28;20028;-35
2024/01/11 03:00:40;;;;;;;2.47;1.50;;;22.00;42.30;;;;;;5121576;28;20419;-30
2024/01/11 03:03:06;;;;;;;3.70;1.85;;;22.00;42.30;;;;;;5113359;28;20100;-34
2024/01/11 03:05:32;;;;;;;2.47;1.63;;;22.00;42.30;;;;;;5120868;28;20080;-36
2024/01/11 03:07:58;;;;;;;2.95;1.70;;;21.90;42.30;;;;;;5122215;27;20055;-33
2024/01/11 03:10:24;;;;;;;2.88;1.83;;;22.00;42.20;;;;;;5121534;28;20027;-30
2024/01/11 03:12:51;;;;;;;2.05;1.50;;;22.00;42.10;;;;;;5111499;28;20028;-34
2024/01/11 03:15:17;;;;;;;2.25;1.40;;;22.00;42.10;;;;;;5110140;28;20034;-34
2024/01/11 03:17:43;;;;;;;1.70;1.38;;;22.00;42.10;;;;;;5119004;28;20556;-33
2024/01/11 03:20:09;;;;;;;2.40;1.50;;;21.90;42.20;;;;;;5112294;28;20019;-32
2024/01/11 03:22:36;;;;;;;3.23;1.47;;;21.90;42.20;;;;;;5112461;27;20035;-34
2024/01/11 03:25:02;;;;;;;3.92;1.80;;;22.00;42.10;;;;;;5109916;28;20035;-35
2024/01/11 03:27:28;;;;;;;1.90;1.53;;;22.00;42.10;;;;;;5121655;28;20055;-30
2024/01/11 03:29:55;;;;;;;1.60;1.38;;;22.00;42.20;;;;;;5113416;28;20050;-30
2024/01/11 03:32:21;;;;;;;2.05;1.45;;;21.90;42.20;;;;;;5115074;28;20027;-31
2024/01/11 03:34:47;;;;;;;2.40;1.38;;;21.90;42.40;;;;;;5106248;28;20051;-34
2024/01/11 03:37:13;;;;;;;1.85;1.50;;;21.90;42.30;;;;;;5120139;28;20447;-33
2024/01/11 03:39:39;;;;;;;1.58;1.30;;;21.90;42.10;;;;;;5114979;28;20031;-31
2024/01/11 03:42:06;;;;;;;2.20;1.40;;;21.90;42.10;;;;;;5107172;27;20111;-31
2024/01/11 03:44:32;;;;;;;2.87;1.50;;;21.90;42.10;;;;;;5110048;27;20128;-32
2024/01/11 03:46:58;;;;;;;1.95;1.40;;;21.80;42.20;;;;;;5116850;28;20030;-30
2024/01/11 03:49:24;;;;;;;2.38;1.65;;;21.80;42.20;;;;;;5115073;28;20024;-34
2024/01/11 03:51:50;;;;;;;1.40;1.17;;;21.90;42.20;;;;;;5111200;28;20024;-33
2024/01/11 03:54:16;;;;;;;1.92;1.25;;;22.00;42.20;;;;;;5116816;28;20035;-28
2024/01/11 03:56:43;;;;;;;1.40;1.30;;;21.90;42.20;;;;;;5109657;27;20032;-31
2024/01/11 03:59:10;;;;;;;3.28;1.50;;;21.90;42.20;;;;;;5110222;28;20034;-32
2024/01/11 04:01:40;;;;;;;;;;;21.80;42.20;;;;;;5108063;28;20030;-30
2024/01/11 04:04:06;;;;;;;2.13;1.45;;;21.80;42.30;;;;;;5107272;28;19916;-31
2024/01/11 04:06:33;;;;;;;1.20;0.98;;;21.90;42.40;;;;;;5110756;28;20039;-30
2024/01/11 04:08:59;;;;;;;1.63;1.25;;;21.90;42.40;;;;;;5113214;27;20020;-32
2024/01/11 04:11:28;;;;;;;2.08;1.27;;;21.90;42.40;;;;;;5115138;28;20030;-35
2024/01/11 04:13:55;;;;;;;3.97;1.40;;;21.80;42.50;;;;;;5119627;27;20028;-31
2024/01/11 04:16:21;;;;;;;1.75;1.30;;;21.80;42.50;;;;;;5117971;27;20101;-32
2024/01/11 04:18:47;;;;;;;2.35;1.20;;;21.80;42.40;;;;;;5111754;28;20042;-32
2024/01/11 04:21:31;;;;;;;1.40;1.10;;;21.80;42.20;;;;;;5118401;28;20024;-31
2024/01/11 04:23:58;;;;;;;1.58;1.30;;;21.80;42.10;;;;;;5116418;28;20034;-29
2024/01/11 04:26:24;;;;;;;1.30;1.10;;;21.80;42.10;;;;;;5121147;28;20105;-30
2024/01/11 04:28:51;;;;;;;1.52;1.25;;;21.80;42.30;;;;;;5112562;28;20035;-31
2024/01/11 04:31:17;;;;;;;1.40;1.20;;;21.70;42.20;;;;;;5123587;28;20035;-32
2024/01/11 04:33:43;;;;;;;1.27;1.08;;;21.80;42.30;;;;;;5117690;28;20032;-33
2024/01/11 04:36:10;;;;;;;1.48;1.20;;;21.80;42.20;;;;;;5110168;27;20131;-32
2024/01/11 04:38:39;;;;;;;2.73;1.13;;;21.80;42.10;;;;;;5111016;28;20154;-35
2024/01/11 04:41:23;;;;;;;1.10;1.00;;;21.80;42.10;;;;;;5107918;28;20076;-33
2024/01/11 04:43:50;;;;;;;1.13;0.90;;;21.70;42.30;;;;;;5115003;28;20053;-34
2024/01/11 04:46:20;;;;;;;1.40;1.20;;;21.70;42.40;;;;;;5109721;28;20028;-30
2024/01/11 04:48:46;;;;;;;1.38;1.20;;;21.70;42.30;;;;;;5112102;28;20024;-32
2024/01/11 04:51:13;;;;;;;1.58;1.48;;;21.80;42.20;;;;;;5110373;28;20379;-31
2024/01/11 04:54:33;;;;;;;1.48;1.23;;;21.80;42.10;;;;;;5121814;28;20035;-30
2024/01/11 04:57:02;;;;;;;1.55;1.40;;;21.70;42.10;;;;;;5111036;28;20058;-31
2024/01/11 04:59:29;;;;;;;1.67;1.17;;;21.70;42.20;;;;;;5113775;28;20434;-30
2024/01/11 05:01:55;;;;;;;1.23;0.95;;;21.70;42.10;;;;;;5115250;28;20039;-32
2024/01/11 05:04:21;;;;;;;1.85;1.30;;;21.80;42.10;;;;;;5107622;28;20062;-33
2024/01/11 05:06:47;;;;;;;1.50;1.27;;;21.80;42.10;;;;;;5112859;28;20027;-31
2024/01/11 05:09:14;;;;;;;1.98;1.27;;;21.70;42.10;;;;;;5121876;28;20024;-30
2024/01/11 05:11:40;;;;;;;1.20;1.02;;;21.70;42.20;;;;;;5112395;28;20178;-29
2024/01/11 05:14:07;;;;;;;1.20;1.00;;;21.70;42.20;;;;;;5112480;28;20031;-31
2024/01/11 05:16:35;;;;;;;2.00;1.13;;;21.70;42.10;;;;;;5112446;28;20039;-32
2024/01/11 05:19:01;;;;;;;1.70;1.15;;;21.80;42.00;;;;;;5112454;28;20370;-36
2024/01/11 05:21:27;;;;;;;1.30;1.08;;;21.80;42.00;;;;;;5110814;28;20020;-34
2024/01/11 05:23:53;;;;;;;1.48;1.08;;;21.70;42.00;;;;;;5110474;28;20034;-31
2024/01/11 05:26:20;;;;;;;2.88;1.10;;;21.70;42.10;;;;;;5117080;28;20023;-31
2024/01/11 05:28:46;;;;;;;1.37;1.00;;;21.70;42.10;;;;;;5112326;28;20016;-29
2024/01/11 05:31:14;;;;;;;2.88;1.13;;;21.70;42.10;;;;;;5122128;28;20395;-34
2024/01/11 05:33:41;;;;;;;4.32;1.20;;;21.70;42.00;;;;;;5114681;28;20032;-32
2024/01/11 05:36:07;;;;;;;2.73;1.17;;;21.70;42.00;;;;;;5115669;28;20057;-29
2024/01/11 05:38:34;;;;;;;1.40;1.00;;;21.70;42.10;;;;;;5116632;28;20400;-29
2024/01/11 05:41:00;;;;;;;1.48;1.23;;;21.60;42.10;;;;;;5117456;28;20028;-31
2024/01/11 05:43:26;;;;;;;1.27;0.88;;;21.60;42.20;;;;;;5116396;28;20072;-34
2024/01/11 05:45:53;;;;;;;1.35;0.95;;;21.70;42.00;;;;;;5107716;28;20020;-31
2024/01/11 05:48:19;;;;;;;1.33;1.05;;;21.70;42.00;;;;;;5120742;28;20028;-31
2024/01/11 05:50:45;;;;;;;1.08;0.93;;;21.70;42.00;;;;;;5114207;28;20021;-30
2024/01/11 05:53:14;;;;;;;2.70;1.00;;;21.60;42.00;;;;;;5111849;28;20039;-34
2024/01/11 05:55:40;;;;;;;1.20;0.98;;;21.60;42.00;;;;;;5123407;28;20032;-33
2024/01/11 05:58:07;;;;;;;1.25;1.00;;;21.60;42.00;;;;;;5119784;28;20043;-32
2024/01/11 06:00:33;;;;;;;1.38;1.05;;;21.70;42.00;;;;;;5121908;28;20035;-31
2024/01/11 06:02:59;;;;;;;1.23;1.00;;;21.70;41.90;;;;;;5118980;28;20083;-33
2024/01/11 06:05:26;;;;;;;1.35;1.00;;;21.70;42.00;;;;;;5124454;28;20087;-35
2024/01/11 06:07:52;;;;;;;1.10;1.00;;;21.60;42.00;;;;;;5116177;28;20035;-29
2024/01/11 06:10:18;;;;;;;1.10;0.93;;;21.60;42.00;;;;;;5121515;28;20035;-30
2024/01/11 06:12:44;;;;;;;0.98;0.88;;;21.60;42.00;;;;;;5114703;28;20110;-33
2024/01/11 06:15:10;;;;;;;1.02;0.90;;;21.70;41.90;;;;;;5113104;28;20022;-33
2024/01/11 06:17:36;;;;;;;1.58;0.95;;;21.70;41.90;;;;;;5116587;28;20484;-30
2024/01/11 06:20:03;;;;;;;1.20;0.82;;;21.60;41.90;;;;;;5125035;28;20035;-33
2024/01/11 06:22:29;;;;;;;5.28;1.10;;;21.60;41.90;;;;;;5120645;27;20041;-33
2024/01/11 06:24:56;;;;;;;0.95;0.80;;;21.60;42.00;;;;;;5125354;28;20034;-33
2024/01/11 06:27:22;;;;;;;1.08;0.90;;;21.60;42.00;;;;;;5124715;28;20050;-29
2024/01/11 06:29:48;;;;;;;0.90;0.90;;;21.60;42.20;;;;;;5121827;28;20032;-33
2024/01/11 06:32:14;;;;;;;0.82;0.82;;;21.60;42.00;;;;;;5114722;28;20027;-29
2024/01/11 06:34:45;;;;;;;0.80;0.70;;;21.60;42.00;;;;;;5124438;27;20051;-31
2024/01/11 06:37:12;;;;;;;1.00;0.70;;;21.60;42.10;;;;;;5124588;28;20043;-32
2024/01/11 06:39:38;;;;;;;1.48;0.90;;;21.60;42.10;;;;;;5114823;28;20134;-31
2024/01/11 06:42:04;;;;;;;0.80;0.68;;;21.60;42.00;;;;;;5111141;28;20032;-32
2024/01/11 06:44:31;;;;;;;1.13;0.80;;;21.60;42.60;;;;;;5110744;28;20032;-32
2024/01/11 06:46:57;;;;;;;1.08;0.90;;;21.60;42.00;;;;;;5114938;28;20035;-35
2024/01/11 06:49:23;;;;;;;1.40;0.80;;;21.60;42.00;;;;;;5108596;28;20057;-31
2024/01/11 06:51:49;;;;;;;1.30;1.00;;;21.60;42.20;;;;;;5117263;28;20035;-28
2024/01/11 06:54:15;;;;;;;0.70;0.70;;;21.60;43.30;;;;;;5112801;28;20028;-32
2024/01/11 06:56:41;;;;;;;1.05;0.80;;;21.60;42.40;;;;;;5111046;27;20028;-31
2024/01/11 06:59:08;;;;;;;1.20;0.80;;;21.60;42.20;;;;;;5114300;28;20036;-31
2024/01/11 07:01:34;;;;;;;1.00;0.75;;;21.60;42.10;;;;;;5109761;28;20036;-32
2024/01/11 07:04:00;;;;;;;4.35;0.82;;;21.60;42.10;;;;;;5111240;28;20027;-29
2024/01/11 07:06:26;;;;;;;0.60;0.50;;;21.60;42.50;;;;;;5109387;28;20028;-29
2024/01/11 07:08:52;;;;;;;2.50;0.60;;;21.60;42.30;;;;;;5116852;28;20031;-32
2024/01/11 07:11:18;;;;;;;0.55;0.55;;;21.60;42.00;;;;;;5110527;28;20028;-32
2024/01/11 07:13:44;;;;;;;1.58;0.88;;;21.60;41.90;;;;;;5116871;28;20062;-34
2024/01/11 07:16:10;;;;;;;1.13;0.80;;;21.60;41.90;;;;;;5114370;28;20094;-30
2024/01/11 07:18:37;;;;;;;2.15;0.88;;;21.60;42.00;;;;;;5112357;28;20059;-30
2024/01/11 07:21:03;;;;;;;0.85;0.60;;;21.60;42.20;;;;;;5109477;28;20202;-32
2024/01/11 07:23:29;;;;;;;0.93;0.80;;;21.60;42.20;;;;;;5112104;28;20095;-33
2024/01/11 07:25:55;;;;;;;2.78;0.70;;;21.60;42.10;;;;;;5114016;28;20107;-32
2024/01/11 07:28:25;;;;;;;0.80;0.70;;;21.60;41.90;;;;;;5120114;28;20039;-30
2024/01/11 07:30:53;;;;;;;1.17;0.77;;;21.60;42.00;;;;;;5115187;27;20030;-30
2024/01/11 07:33:20;;;;;;;1.33;0.60;;;21.60;42.10;;;;;;5108425;28;20081;-31
2024/01/11 07:35:46;;;;;;;;;;;21.60;42.10;;;;;;5118483;28;20500;-34
2024/01/11 07:38:12;;;;;;;0.82;0.57;;;21.60;42.10;;;;;;5121968;27;19952;-30
2024/01/11 07:40:39;;;;;;;1.52;0.68;;;21.60;42.00;;;;;;5114779;28;20048;-29
2024/01/11 07:43:05;;;;;;;0.90;0.70;;;21.70;42.00;;;;;;5118466;27;20079;-29
2024/01/11 07:45:31;;;;;;;0.95;0.77;;;21.60;42.00;;;;;;5114488;28;20028;-35
2024/01/11 07:47:57;;;;;;;1.40;0.68;;;21.60;42.10;;;;;;5108739;28;20052;-32
2024/01/11 07:50:24;;;;;;;2.00;0.73;;;21.50;42.00;;;;;;5106674;28;20028;-32
2024/01/11 07:52:50;;;;;;;0.82;0.60;;;21.50;42.00;;;;;;5112391;28;20066;-32
2024/01/11 07:55:17;;;;;;;0.50;0.50;;;21.60;41.90;;;;;;5112141;28;20055;-32
2024/01/11 07:57:43;;;;;;;2.55;0.80;;;21.60;41.80;;;;;;5113149;28;20040;-30
2024/01/11 08:00:09;;;;;;;2.15;0.88;;;21.60;41.80;;;;;;5114315;28;20034;-32
2024/01/11 08:02:35;;;;;;;2.67;0.90;;;21.50;42.00;;;;;;5110376;28;20035;-34
2024/01/11 08:05:02;;;;;;;1.10;0.80;;;21.50;41.90;;;;;;5116170;28;20019;-30
2024/01/11 08:07:28;;;;;;;0.95;0.60;;;21.50;41.80;;;;;;5111065;28;20047;-31
2024/01/11 08:09:55;;;;;;;0.70;0.60;;;21.60;41.80;;;;;;5111578;28;20036;-30
2024/01/11 08:12:21;;;;;;;1.20;0.80;;;21.60;41.80;;;;;;5105251;28;20020;-30
2024/01/11 08:14:48;;;;;;;1.10;0.80;;;21.60;41.80;;;;;;5110740;28;20027;-32
2024/01/11 08:17:14;;;;;;;1.45;0.80;;;21.60;41.90;;;;;;5108812;28;20138;-30
2024/01/11 08:19:42;;;;;;;0.83;0.70;;;21.50;41.80;;;;;;5114883;28;20039;-32
2024/01/11 08:22:08;;;;;;;1.02;0.60;;;21.60;41.80;;;;;;5116351;28;20031;-31
2024/01/11 08:24:35;;;;;;;0.80;0.80;;;21.60;41.80;;;;;;5111279;28;20039;-35
2024/01/11 08:27:01;;;;;;;0.88;0.68;;;21.60;41.70;;;;;;5108623;28;20038;-33
2024/01/11 08:29:27;;;;;;;1.15;0.77;;;21.50;41.70;;;;;;5120229;28;20031;-34
2024/01/11 08:31:57;;;;;;;0.80;0.80;;;21.50;41.80;;;;;;5114597;28;20026;-30
2024/01/11 08:34:26;;;;;;;1.08;0.80;;;21.50;41.80;;;;;;5115878;28;20024;-30
2024/01/11 08:36:52;;;;;;;0.70;0.60;;;21.50;41.80;;;;;;5117672;28;20077;-33
2024/01/11 08:39:19;;;;;;;1.08;0.80;;;21.50;41.70;;;;;;5115593;27;20067;-31
2024/01/11 08:41:45;;;;;;;1.00;0.77;;;21.50;41.70;;;;;;5117413;28;20032;-32
2024/01/11 08:44:11;;;;;;;1.60;0.93;;;21.50;41.70;;;;;;5119093;27;20039;-32
2024/01/11 08:46:37;;;;;;;0.80;0.80;;;21.50;41.90;;;;;;5115872;28;20043;-29
2024/01/11 08:49:24;;;;;;;0.80;0.80;;;21.40;41.90;;;;;;5105883;28;20035;-29
2024/01/11 08:51:50;;;;;;;0.90;0.80;;;21.50;41.80;;;;;;5079992;28;20033;-29
2024/01/11 08:54:16;;;;;;;0.80;0.80;;;21.50;41.80;;;;;;5078574;28;20067;-31
2024/01/11 08:56:43;;;;;;;0.98;0.88;;;21.50;41.90;;;;;;5093418;28;20040;-34
2024/01/11 08:59:09;;;;;;;1.02;0.82;;;21.50;41.90;;;;;;5079744;28;20032;-33
2024/01/11 09:01:35;;;;;;;1.10;0.80;;;21.40;42.00;;;;;;5058610;28;20024;-30
2024/01/11 09:04:02;;;;;;;1.00;0.80;;;21.40;42.00;;;;;;5077006;28;20040;-34
2024/01/11 09:06:29;;;;;;;1.00;0.80;;;21.50;41.90;;;;;;5078944;28;20032;-34
2024/01/11 09:08:55;;;;;;;1.17;0.93;;;21.50;41.80;;;;;;5079514;28;20119;-30
2024/01/11 09:11:21;;;;;;;1.10;0.80;;;21.50;41.90;;;;;;5078572;28;20115;-33
2024/01/11 09:13:47;;;;;;;1.15;0.80;;;21.40;42.00;;;;;;5077240;28;20024;-29
2024/01/11 09:16:16;;;;;;;1.15;0.80;;;21.40;42.00;;;;;;5079292;28;20691;-29
2024/01/11 09:18:44;;;;;;;1.15;0.95;;;21.40;41.90;;;;;;5076808;28;20127;-32
2024/01/11 09:21:10;;;;;;;1.55;1.05;;;21.40;41.90;;;;;;5077419;28;20067;-35
2024/01/11 09:23:37;;;;;;;0.85;0.77;;;21.50;41.80;;;;;;5078263;28;20032;-35
2024/01/11 09:26:03;;;;;;;1.35;0.80;;;21.40;41.80;;;;;;5079014;28;20020;-30
2024/01/11 09:28:29;;;;;;;1.25;0.68;;;21.40;42.00;;;;;;5092403;28;20055;-31
2024/01/11 09:30:59;;;;;;;1.48;1.00;;;21.40;42.00;;;;;;5119403;28;20032;-30
2024/01/11 09:33:26;;;;;;;0.95;0.77;;;21.40;42.00;;;;;;5114749;28;20035;-34
2024/01/11 09:35:52;;;;;;;1.33;0.90;;;21.40;41.90;;;;;;5116158;28;20028;-33
2024/01/11 09:38:18;;;;;;;0.80;0.80;;;21.40;41.90;;;;;;5113017;28;20043;-30
2024/01/11 09:40:45;;;;;;;1.10;0.80;;;21.40;41.90;;;;;;5115190;28;20030;-29
2024/01/11 09:43:11;;;;;;;1.27;0.82;;;21.40;42.00;;;;;;5109426;28;20024;-31
2024/01/11 09:45:37;;;;;;;0.88;0.60;;;21.30;42.00;;;;;;5113468;28;20028;-28
2024/01/11 09:48:06;;;;;;;1.30;0.77;;;21.40;42.00;;;;;;5115324;28;20054;-31
2024/01/11 09:50:32;;;;;;;0.65;0.60;;;21.40;42.00;;;;;;5117105;28;20067;-33
2024/01/11 09:52:58;;;;;;;1.00;0.85;;;21.40;41.90;;;;;;5109488;28;20051;-31
2024/01/11 09:55:24;;;;;;;0.85;0.80;;;21.40;42.00;;;;;;5105994;28;20047;-34
2024/01/11 09:57:53;;;;;;;2.25;0.95;;;21.30;41.90;;;;;;5109651;28;20051;-33
2024/01/11 10:00:22;;;;;;;1.08;0.80;;;21.30;41.90;;;;;;5095222;28;20028;-31
2024/01/11 10:02:48;;;;;;;0.75;0.50;;;21.40;42.00;;;;;;5114116;28;20063;-29
2024/01/11 10:05:15;;;;;;;0.77;0.60;;;21.40;41.90;;;;;;5116862;28;20015;-31
2024/01/11 10:07:41;;;;;;;1.02;0.80;;;21.40;42.00;;;;;;5116292;28;20074;-31
2024/01/11 10:10:08;;;;;;;0.70;0.60;;;21.30;41.90;;;;;;5110043;28;20032;-31
2024/01/11 10:12:37;;;;;;;0.70;0.60;;;21.30;41.80;;;;;;5113821;28;20032;-34
2024/01/11 10:15:09;;;;;;;1.10;0.70;;;21.30;41.80;;;;;;5117044;28;20091;-30
2024/01/11 10:17:44;;;;;;;1.58;0.80;;;21.40;41.80;;;;;;5107230;28;20024;-35
2024/01/11 10:20:13;;;;;;;1.95;0.82;;;21.40;41.80;;;;;;5103270;28;20450;-35
2024/01/11 10:22:41;;;;;;;0.80;0.80;;;21.30;41.90;;;;;;5116231;28;20035;-33
2024/01/11 10:25:12;;;;;;;1.23;0.73;;;21.30;41.90;;;;;;5112882;28;20039;-31
2024/01/11 10:27:45;;;;;;;0.60;0.60;;;21.30;41.90;;;;;;5114339;28;20048;-32
2024/01/11 10:30:20;;;;;;;0.70;0.70;;;21.30;41.70;;;;;;5111809;28;20051;-33
2024/01/11 10:32:46;;;;;;;0.77;0.68;;;21.40;41.80;;;;;;5119967;28;20032;-30
2024/01/11 10:35:13;;;;;;;1.20;0.80;;;21.30;41.80;;;;;;5116022;28;20044;-31
2024/01/11 10:37:39;;;;;;;0.93;0.75;;;21.30;41.90;;;;;;5121482;28;20043;-31
2024/01/11 10:40:10;;;;;;;0.85;0.57;;;21.30;41.90;;;;;;5117126;28;20095;-33
2024/01/11 10:42:43;;;;;;;1.00;0.60;;;21.30;41.80;;;;;;5112711;28;20062;-30
2024/01/11 10:45:17;;;;;;;1.20;0.77;;;21.40;41.70;;;;;;5118369;28;20024;-30
2024/01/11 10:47:59;;;;;;;1.02;0.70;;;21.40;41.70;;;;;;5140352;27;20024;-31
2024/01/11 10:50:25;;;;;;;1.00;0.70;;;21.30;41.70;;;;;;5113340;28;20062;-32
2024/01/11 10:53:14;;;;;;;0.93;0.70;;;21.30;41.90;;;;;;5127662;27;20019;-31
2024/01/11 10:55:41;;;;;;;1.98;0.68;;;21.30;42.50;;;;;;5107695;28;20039;-32
2024/01/11 10:58:07;;;;;;;2.00;0.60;;;21.30;42.30;;;;;;5115791;28;20066;-34
2024/01/11 11:00:33;;;;;;;2.28;0.82;;;21.40;42.10;;;;;;5113956;28;20024;-31
2024/01/11 11:03:00;;;;;;;0.70;0.70;;;21.40;42.00;;;;;;5120545;28;20051;-31
2024/01/11 11:05:27;;;;;;;0.77;0.77;;;21.30;41.90;;;;;;5115472;28;20036;-33
2024/01/11 11:07:53;;;;;;;0.65;0.57;;;21.30;42.00;;;;;;5119295;28;20036;-34
2024/01/11 11:10:19;;;;;;;0.77;0.60;;;21.30;41.90;;;;;;5118224;28;20031;-33
2024/01/11 11:12:46;;;;;;;2.90;0.90;;;21.30;41.80;;;;;;5119325;28;20069;-32
2024/01/11 11:15:13;;;;;;;0.73;0.60;;;21.40;41.80;;;;;;5116857;28;20039;-31
2024/01/11 11:17:40;;;;;;;0.60;0.52;;;21.40;41.70;;;;;;5110973;28;20051;-31
2024/01/11 11:20:08;;;;;;;0.98;0.60;;;21.30;41.80;;;;;;5108603;28;20032;-31
2024/01/11 11:22:37;;;;;;;0.80;0.60;;;21.30;41.80;;;;;;5113160;28;20515;-34
2024/01/11 11:25:05;;;;;;;1.35;0.68;;;21.30;41.80;;;;;;5113654;28;20050;-32
2024/01/11 11:27:31;;;;;;;0.68;0.63;;;21.30;41.70;;;;;;5132732;27;20040;-32
2024/01/11 11:29:58;;;;;;;0.82;0.73;;;21.40;41.80;;;;;;5114430;28;20039;-33
2024/01/11 11:32:50;;;;;;;1.05;0.80;;;21.40;41.70;;;;;;5122211;28;20031;-32
2024/01/11 11:35:16;;;;;;;0.60;0.60;;;21.30;41.70;;;;;;5108151;28;20504;-30
2024/01/11 11:37:42;;;;;;;0.80;0.73;;;21.30;41.70;;;;;;5119612;28;20058;-32
2024/01/11 11:40:12;;;;;;;0.70;0.60;;;21.30;41.70;;;;;;5118571;28;20028;-31
2024/01/11 11:42:38;;;;;;;0.70;0.68;;;21.40;41.70;;;;;;5121931;28;20395;-32
2024/01/11 11:45:05;;;;;;;2.55;0.60;;;21.40;41.80;;;;;;5095273;28;20027;-29
2024/01/11 11:47:35;;;;;;;0.52;0.52;;;21.40;41.90;;;;;;5110320;28;20031;-30
2024/01/11 11:50:05;;;;;;;1.05;0.70;;;21.30;42.00;;;;;;5120026;28;20035;-31
2024/01/11 11:52:34;;;;;;;0.60;0.60;;;21.30;41.90;;;;;;5120435;27;20058;-32
2024/01/11 11:55:00;;;;;;;0.88;0.55;;;21.30;41.80;;;;;;5110538;28;20116;-32
2024/01/11 11:57:31;;;;;;;0.65;0.60;;;21.30;41.80;;;;;;5117528;28;20027;-32
2024/01/11 11:59:58;;;;;;;1.00;0.70;;;21.40;41.70;;;;;;5108439;28;20028;-32
2024/01/11 12:02:24;;;;;;;;;;;21.40;41.80;;;;;;5113944;28;20039;-33
2024/01/11 12:04:51;;;;;;;0.60;0.55;;;21.30;41.80;;;;;;5121638;28;19907;-34
2024/01/11 12:07:17;;;;;;;1.17;0.70;;;21.20;41.70;;;;;;5122345;28;20026;-31
2024/01/11 12:09:43;;;;;;;0.88;0.68;;;21.30;41.80;;;;;;5112624;28;20132;-32
2024/01/11 12:12:09;;;;;;;2.17;0.60;;;21.30;41.70;;;;;;5108844;28;20032;-33
2024/01/11 12:14:35;;;;;;;0.60;0.60;;;21.30;41.80;;;;;;5097324;27;20428;-31
2024/01/11 12:17:02;;;;;;;1.27;0.85;;;21.30;41.80;;;;;;5115045;28;20028;-32
2024/01/11 12:19:28;;;;;;;0.60;0.60;;;21.30;41.80;;;;;;5113582;28;20023;-30
2024/01/11 12:21:54;;;;;;;0.80;0.70;;;21.20;41.80;;;;;;5115833;28;20038;-31
2024/01/11 12:24:24;;;;;;;0.70;0.60;;;21.30;41.80;;;;;;5122328;28;20028;-29
2024/01/11 12:26:50;;;;;;;0.63;0.60;;;21.30;41.70;;;;;;5116736;28;20043;-33
2024/01/11 12:29:20;;;;;;;1.43;0.70;;;21.30;41.70;;;;;;5119395;28;20058;-33
2024/01/11 12:31:46;;;;;;;0.55;0.50;;;21.30;41.70;;;;;;5108439;28;20028;-34
2024/01/11 12:34:12;;;;;;;0.90;0.80;;;21.30;41.80;;;;;;5109088;28;20175;-33
2024/01/11 12:36:38;;;;;;;1.13;0.60;;;21.30;41.70;;;;;;5141868;27;20040;-31
2024/01/11 12:39:06;;;;;;;0.70;0.63;;;21.30;41.70;;;;;;5106835;28;20031;-31
2024/01/11 12:41:35;;;;;;;;;;;21.30;41.70;;;;;;5113526;28;20031;-33
2024/01/11 12:44:01;;;;;;;0.82;0.70;;;21.30;41.60;;;;;;5110165;27;19912;-35
2024/01/11 12:46:28;;;;;;;0.93;0.70;;;21.30;41.60;;;;;;5112421;28;20038;-35
2024/01/11 12:48:54;;;;;;;1.20;0.90;;;21.30;41.80;;;;;;5107958;28;20024;-33